Terminal Aerodrome Forecast
Issued by NWS

Home | Current Version | Previous Version | Graphics & Text | Print | Product List | Glossary On
Versions: 1 2 3 4 5 6 7 8 9 10 11 12 13
000
FTUS43 KFGF 252320
TAFBJI
TAF
KBJI 252320Z 2600/2624 25006KT P6SM SCT020 BKN026 OVC045
      TEMPO 2601/2603 SCT026 BKN045
     FM261000 33004KT 2SM -SN OVC010
     FM261400 33004KT P6SM BKN015
     FM261600 32005KT P6SM BKN035=

USA.gov is the U.S. government's official web portal to all federal, state and local government web resources and services.